createdAt,value
2023-02-08T00:00:59.070Z,75.91
2023-02-08T00:03:26.984Z,76.33
2023-02-08T00:05:54.801Z,76.23
2023-02-08T00:08:22.563Z,76.14
2023-02-08T00:10:50.742Z,75.33
2023-02-08T00:13:18.518Z,76.33
2023-02-08T00:15:47.132Z,76.71
2023-02-08T00:18:15.288Z,75.72
2023-02-08T00:20:43.785Z,75.11
2023-02-08T00:23:12.029Z,76.18
2023-02-08T00:25:40.381Z,76.02
2023-02-08T00:28:09.534Z,76.34
2023-02-08T00:30:37.409Z,76.23
2023-02-08T00:33:05.640Z,76.59
2023-02-08T00:35:33.637Z,76.59
2023-02-08T00:38:01.633Z,77.11
2023-02-08T00:40:29.479Z,75.97
2023-02-08T00:42:57.415Z,76.03
2023-02-08T00:45:25.387Z,76.51
2023-02-08T00:47:53.133Z,76.46
2023-02-08T00:50:20.915Z,76.45
2023-02-08T00:52:48.703Z,75.42
2023-02-08T00:55:16.755Z,75.82
2023-02-08T00:57:44.825Z,75.78
2023-02-08T01:00:13.307Z,75.58
2023-02-08T01:02:41.131Z,76.21
2023-02-08T01:05:09.194Z,77.03
2023-02-08T01:07:38.703Z,75.68
2023-02-08T01:10:07.217Z,76.43
2023-02-08T01:12:35.123Z,74.74
2023-02-08T01:15:02.999Z,75.79
2023-02-08T01:17:30.877Z,74.59
2023-02-08T01:19:58.784Z,75.15
2023-02-08T01:22:26.535Z,75.09
2023-02-08T01:24:54.417Z,74.52
2023-02-08T01:27:22.323Z,74.59
2023-02-08T01:29:50.110Z,74.10
2023-02-08T01:32:17.893Z,75.19
2023-02-08T01:34:45.714Z,74.68
2023-02-08T01:37:13.480Z,74.02
2023-02-08T01:39:41.659Z,74.36
2023-02-08T01:42:14.651Z,73.64
2023-02-08T01:45:24.554Z,74.68
2023-02-08T01:47:57.071Z,74.00
2023-02-08T01:50:25.715Z,74.46
2023-02-08T01:52:53.517Z,74.98
2023-02-08T01:55:33.066Z,74.37
2023-02-08T01:58:02.495Z,74.16
2023-02-08T02:00:30.392Z,73.17
2023-02-08T02:02:58.214Z,73.70
2023-02-08T02:05:35.621Z,73.42
2023-02-08T02:08:03.638Z,73.43
2023-02-08T02:10:33.571Z,73.08
2023-02-08T02:13:10.639Z,72.93
2023-02-08T02:15:38.524Z,73.64
2023-02-08T02:18:07.256Z,73.62
2023-02-08T02:20:58.127Z,73.73
2023-02-08T02:23:31.892Z,74.40
2023-02-08T02:26:02.696Z,74.98
2023-02-08T02:28:45.559Z,74.94
2023-02-08T02:31:16.349Z,74.61
2023-02-08T02:34:13.942Z,74.39
2023-02-08T02:36:51.330Z,74.61
2023-02-08T02:39:21.768Z,75.14
2023-02-08T02:42:28.843Z,75.19
2023-02-08T02:45:09.804Z,75.15
2023-02-08T02:47:57.083Z,75.59
2023-02-08T02:50:30.592Z,75.40
2023-02-08T02:53:32.800Z,74.90
2023-02-08T02:56:22.701Z,74.49
2023-02-08T02:58:50.749Z,76.00
2023-02-08T03:01:27.234Z,76.40
2023-02-08T03:03:55.473Z,75.86
2023-02-08T03:06:35.232Z,75.62
2023-02-08T03:09:10.147Z,76.93
2023-02-08T03:11:38.189Z,76.99
2023-02-08T03:14:28.452Z,76.66
2023-02-08T03:17:10.052Z,77.38
2023-02-08T03:19:38.635Z,77.08
2023-02-08T03:22:18.673Z,76.66
2023-02-08T03:25:18.797Z,77.43
2023-02-08T03:28:05.319Z,75.92
2023-02-08T03:30:53.210Z,75.44
2023-02-08T03:33:52.438Z,76.20
2023-02-08T03:36:27.050Z,76.68
2023-02-08T03:38:54.916Z,76.06
2023-02-08T03:41:28.128Z,76.56
2023-02-08T03:43:59.560Z,76.38
2023-02-08T03:46:30.329Z,75.87
2023-02-08T03:49:02.086Z,76.36
2023-02-08T03:51:29.938Z,75.74
2023-02-08T03:53:59.054Z,76.27
2023-02-08T03:56:40.311Z,76.29
2023-02-08T03:59:10.795Z,75.83
2023-02-08T04:01:48.017Z,75.73
2023-02-08T04:04:16.245Z,75.59
2023-02-08T04:06:44.045Z,75.51
2023-02-08T04:09:11.952Z,75.50
2023-02-08T04:11:39.739Z,75.24
2023-02-08T04:14:07.672Z,75.21
2023-02-08T04:16:35.579Z,74.59
2023-02-08T04:19:03.461Z,74.86
2023-02-08T04:21:31.267Z,74.91
2023-02-08T04:23:59.029Z,74.65
2023-02-08T04:26:26.803Z,74.45
2023-02-08T04:28:54.606Z,75.47
2023-02-08T04:31:22.508Z,74.56
2023-02-08T04:33:50.372Z,75.14
2023-02-08T04:36:18.210Z,75.12
2023-02-08T04:38:45.992Z,75.30
2023-02-08T04:41:13.808Z,75.47
2023-02-08T04:43:41.620Z,74.62
2023-02-08T04:46:09.412Z,75.19
2023-02-08T04:48:37.232Z,75.90
2023-02-08T04:51:05.085Z,76.76
2023-02-08T04:53:32.872Z,76.22
2023-02-08T04:56:00.610Z,76.41
2023-02-08T04:58:28.344Z,76.98
2023-02-08T05:00:56.090Z,76.78
2023-02-08T05:03:23.891Z,76.89
2023-02-08T05:06:01.085Z,76.88
2023-02-08T05:08:29.265Z,76.62
2023-02-08T05:10:57.137Z,76.20
2023-02-08T05:13:24.925Z,76.02
2023-02-08T05:15:52.801Z,76.03
2023-02-08T05:18:20.605Z,75.82
2023-02-08T05:20:58.419Z,75.88
2023-02-08T05:23:26.973Z,75.82
2023-02-08T05:25:54.946Z,75.88
2023-02-08T05:28:22.860Z,74.73
2023-02-08T05:30:50.745Z,74.76
2023-02-08T05:33:18.823Z,75.36
2023-02-08T05:35:52.938Z,75.49
2023-02-08T05:38:21.157Z,75.07
2023-02-08T05:40:49.079Z,75.52
2023-02-08T05:43:16.874Z,74.43
2023-02-08T05:45:44.611Z,75.14
2023-02-08T05:48:12.365Z,74.42
2023-02-08T05:50:40.499Z,74.75
2023-02-08T05:53:08.745Z,74.91
2023-02-08T05:55:36.581Z,73.73
2023-02-08T05:58:04.413Z,73.84
2023-02-08T06:00:32.254Z,74.21
2023-02-08T06:03:00.041Z,74.19
2023-02-08T06:05:28.008Z,74.67
2023-02-08T06:07:55.892Z,74.66
2023-02-08T06:10:23.807Z,75.11
2023-02-08T06:12:51.713Z,74.71
2023-02-08T06:15:19.564Z,75.11
2023-02-08T06:17:47.342Z,75.10
2023-02-08T06:20:15.067Z,75.67
2023-02-08T06:22:42.893Z,73.97
2023-02-08T06:25:10.668Z,74.52
2023-02-08T06:27:38.478Z,74.86
2023-02-08T06:30:06.398Z,74.03
2023-02-08T06:32:34.243Z,74.12
2023-02-08T06:35:02.364Z,74.75
2023-02-08T06:37:30.159Z,75.82
2023-02-08T06:40:00.510Z,74.67
2023-02-08T06:42:28.389Z,75.07
2023-02-08T06:44:57.133Z,75.50
2023-02-08T06:47:25.536Z,75.35
2023-02-08T06:49:53.509Z,75.87
2023-02-08T06:52:21.675Z,75.54
2023-02-08T06:54:49.510Z,75.31
2023-02-08T06:57:17.417Z,74.97
2023-02-08T06:59:45.258Z,75.12
2023-02-08T07:02:17.913Z,96.70
2023-02-08T07:04:46.601Z,84.62
2023-02-08T07:07:14.903Z,82.02
2023-02-08T07:09:42.744Z,75.56
2023-02-08T07:12:10.776Z,74.83
2023-02-08T07:14:41.246Z,75.83
2023-02-08T07:17:09.320Z,75.16
2023-02-08T07:19:37.087Z,75.37
2023-02-08T07:22:09.294Z,75.57
2023-02-08T07:24:41.266Z,75.46
2023-02-08T07:27:10.188Z,75.70
2023-02-08T07:29:38.076Z,75.44
2023-02-08T07:32:06.312Z,75.29
2023-02-08T07:34:36.293Z,74.88
2023-02-08T07:37:04.187Z,75.84
2023-02-08T07:39:32.719Z,74.98
2023-02-08T07:42:01.014Z,74.70
2023-02-08T07:44:28.785Z,75.24
2023-02-08T07:46:56.659Z,74.62
2023-02-08T07:49:24.544Z,75.84
2023-02-08T07:51:52.298Z,74.89
2023-02-08T07:54:20.086Z,74.61
2023-02-08T07:56:47.946Z,74.08
2023-02-08T07:59:15.934Z,73.93
2023-02-08T08:01:43.893Z,73.43
2023-02-08T08:04:11.740Z,72.54
2023-02-08T08:06:39.606Z,71.27
2023-02-08T08:09:07.471Z,69.97
2023-02-08T08:11:36.716Z,70.71
2023-02-08T08:14:04.807Z,68.51
2023-02-08T08:16:32.785Z,68.57
2023-02-08T08:19:00.620Z,67.04
2023-02-08T08:21:28.529Z,67.03
2023-02-08T08:23:56.644Z,65.35
2023-02-08T08:26:24.608Z,64.29
2023-02-08T08:28:52.576Z,63.71
2023-02-08T08:31:23.220Z,64.59
2023-02-08T08:33:51.559Z,63.35
2023-02-08T08:36:19.618Z,64.22
2023-02-08T08:38:47.659Z,62.38
2023-02-08T08:41:18.315Z,61.37
2023-02-08T08:43:46.225Z,61.23
2023-02-08T08:46:14.112Z,60.35
2023-02-08T08:48:41.972Z,60.74
2023-02-08T08:51:09.844Z,60.65
2023-02-08T08:53:38.494Z,59.38
2023-02-08T08:56:06.722Z,60.12
2023-02-08T08:58:34.647Z,57.40
2023-02-08T09:01:02.814Z,58.88
2023-02-08T09:03:31.076Z,58.68
2023-02-08T09:05:58.970Z,57.04
2023-02-08T09:08:26.823Z,57.00
2023-02-08T09:10:54.820Z,55.67
2023-02-08T09:13:23.069Z,57.27
2023-02-08T09:15:51.075Z,56.85
2023-02-08T09:18:19.131Z,55.68
2023-02-08T09:20:47.146Z,56.44
2023-02-08T09:23:15.900Z,55.89
2023-02-08T09:25:43.967Z,55.11
2023-02-08T09:28:11.796Z,56.17
2023-02-08T09:30:39.800Z,53.65
2023-02-08T09:33:08.000Z,54.85
2023-02-08T09:35:35.837Z,54.90
2023-02-08T09:38:05.791Z,55.91
2023-02-08T09:41:09.568Z,52.72
2023-02-08T09:43:55.903Z,55.42
2023-02-08T09:46:25.371Z,52.70
2023-02-08T09:48:53.687Z,53.82
2023-02-08T09:51:43.143Z,52.48
2023-02-08T09:54:22.738Z,50.46
2023-02-08T09:56:51.342Z,51.39
2023-02-08T09:59:28.108Z,52.67
2023-02-08T10:02:12.568Z,51.20
2023-02-08T10:04:59.718Z,50.24
2023-02-08T10:07:28.009Z,51.64
2023-02-08T10:10:01.168Z,51.62
2023-02-08T10:12:46.985Z,51.58
2023-02-08T10:15:22.991Z,52.76
2023-02-08T10:18:02.658Z,53.33
2023-02-08T10:20:54.687Z,53.86
2023-02-08T10:23:22.711Z,54.63
2023-02-08T10:26:09.829Z,54.46
2023-02-08T10:29:05.886Z,53.51
2023-02-08T10:31:43.753Z,54.28
2023-02-08T10:34:31.096Z,55.28
2023-02-08T10:36:58.975Z,53.66
2023-02-08T10:39:33.724Z,55.38
2023-02-08T10:42:04.745Z,53.94
2023-02-08T10:44:37.795Z,54.59
2023-02-08T10:47:16.579Z,53.96
2023-02-08T10:49:58.568Z,54.59
2023-02-08T10:52:26.341Z,54.92
2023-02-08T10:54:54.300Z,55.80
2023-02-08T10:57:25.093Z,57.69
2023-02-08T11:00:00.098Z,56.46
2023-02-08T11:02:40.961Z,57.54
2023-02-08T11:05:13.687Z,57.12
2023-02-08T11:07:41.537Z,56.84
2023-02-08T11:10:22.239Z,56.93
2023-02-08T11:13:09.249Z,56.83
2023-02-08T11:15:41.599Z,55.82
2023-02-08T11:18:14.783Z,55.44
2023-02-08T11:20:42.724Z,57.30
2023-02-08T11:23:41.307Z,55.60
2023-02-08T11:26:34.798Z,55.83
2023-02-08T11:29:21.737Z,54.35
2023-02-08T11:32:03.606Z,54.04
2023-02-08T11:34:31.343Z,53.55
2023-02-08T11:36:59.550Z,53.41
2023-02-08T11:39:51.061Z,52.18
2023-02-08T11:42:22.003Z,51.66
2023-02-08T11:44:50.278Z,51.65
2023-02-08T11:47:21.454Z,51.25
2023-02-08T11:49:54.219Z,51.79
2023-02-08T11:52:26.977Z,50.93
2023-02-08T11:55:22.898Z,52.19
2023-02-08T11:58:13.649Z,50.44
2023-02-08T12:00:41.873Z,49.25
2023-02-08T12:03:22.430Z,49.71
2023-02-08T12:06:22.817Z,49.53
2023-02-08T12:09:10.823Z,49.23
2023-02-08T12:11:45.343Z,48.38
2023-02-08T12:14:38.346Z,48.30
2023-02-08T12:17:18.505Z,48.72
2023-02-08T12:19:46.173Z,49.10
2023-02-08T12:22:40.710Z,48.93
2023-02-08T12:25:35.657Z,48.72
2023-02-08T12:28:17.726Z,48.35
2023-02-08T12:30:46.678Z,48.05
2023-02-08T12:33:19.605Z,49.03
2023-02-08T12:36:03.064Z,49.05
2023-02-08T12:39:21.686Z,49.75
2023-02-08T12:42:23.256Z,48.54
2023-02-08T12:44:56.782Z,47.47
2023-02-08T12:48:04.369Z,47.65
2023-02-08T12:50:38.734Z,48.81
2023-02-08T12:53:39.620Z,48.87
2023-02-08T12:56:09.582Z,48.47
2023-02-08T12:58:44.700Z,48.99
2023-02-08T13:01:17.128Z,46.78
2023-02-08T13:03:53.272Z,48.20
2023-02-08T13:06:33.408Z,47.32
2023-02-08T13:09:07.387Z,48.04
2023-02-08T13:12:05.233Z,47.98
2023-02-08T13:14:37.507Z,47.49
2023-02-08T13:17:17.399Z,48.46
2023-02-08T13:20:04.313Z,48.19
2023-02-08T13:22:33.522Z,47.74
2023-02-08T13:25:07.676Z,49.73
2023-02-08T13:27:36.174Z,49.47
2023-02-08T13:30:04.509Z,49.92
2023-02-08T13:32:36.530Z,49.49
2023-02-08T13:35:08.497Z,49.63
2023-02-08T13:37:36.526Z,49.37
2023-02-08T13:40:29.148Z,49.79
2023-02-08T13:43:04.925Z,48.97
2023-02-08T13:45:43.521Z,50.05
2023-02-08T13:48:16.313Z,48.74
2023-02-08T13:50:58.016Z,49.54
2023-02-08T13:53:41.696Z,48.94
2023-02-08T13:56:10.792Z,48.71
2023-02-08T13:58:39.654Z,49.36
2023-02-08T14:01:16.308Z,48.50
2023-02-08T14:03:44.258Z,48.85
2023-02-08T14:06:23.629Z,49.43
2023-02-08T14:09:07.768Z,48.62
2023-02-08T14:11:43.900Z,48.51
2023-02-08T14:14:20.908Z,47.99
2023-02-08T14:17:05.354Z,47.85
2023-02-08T14:19:34.494Z,49.28
2023-02-08T14:22:16.961Z,48.52
2023-02-08T14:24:49.339Z,47.00
2023-02-08T14:27:31.374Z,47.45
2023-02-08T14:30:17.334Z,47.70
2023-02-08T14:32:53.187Z,46.80
2023-02-08T14:35:24.003Z,49.72
2023-02-08T14:38:12.397Z,45.98
2023-02-08T14:40:59.978Z,46.26
2023-02-08T14:43:41.777Z,45.61
2023-02-08T14:46:40.633Z,46.16
2023-02-08T14:49:15.097Z,47.81
2023-02-08T14:52:00.530Z,45.71
2023-02-08T14:54:37.374Z,46.41
2023-02-08T14:57:06.687Z,46.24
2023-02-08T14:59:35.717Z,46.61
2023-02-08T15:02:05.351Z,46.46
2023-02-08T15:04:33.263Z,46.64
2023-02-08T15:07:34.235Z,49.63
2023-02-08T15:10:07.054Z,49.21
2023-02-08T15:12:36.879Z,49.06
2023-02-08T15:15:05.144Z,50.75
2023-02-08T15:17:38.407Z,49.48
2023-02-08T15:20:08.778Z,52.50
2023-02-08T15:22:41.269Z,53.62
2023-02-08T15:25:23.961Z,53.12
2023-02-08T15:27:54.558Z,54.01
2023-02-08T15:30:25.996Z,54.12
2023-02-08T15:32:53.853Z,54.86
2023-02-08T15:35:22.052Z,54.61
2023-02-08T15:37:49.996Z,55.20
2023-02-08T15:40:29.334Z,55.66
2023-02-08T15:43:03.385Z,56.36
2023-02-08T15:45:33.962Z,57.38
2023-02-08T15:48:02.130Z,56.86
2023-02-08T15:50:30.035Z,57.21
2023-02-08T15:53:06.176Z,58.20
2023-02-08T15:55:45.046Z,58.05
2023-02-08T15:58:29.752Z,58.41
2023-02-08T16:00:58.746Z,59.16
2023-02-08T16:03:26.691Z,59.06
2023-02-08T16:06:02.439Z,59.95
2023-02-08T16:08:35.344Z,60.23
2023-02-08T16:11:05.206Z,60.28
2023-02-08T16:13:35.202Z,60.21
2023-02-08T16:16:15.241Z,60.35
2023-02-08T16:18:47.182Z,62.13
2023-02-08T16:21:25.083Z,62.20
2023-02-08T16:24:12.003Z,62.81
2023-02-08T16:26:58.545Z,62.39
2023-02-08T16:29:28.926Z,62.93
2023-02-08T16:32:07.978Z,61.71
2023-02-08T16:34:39.166Z,62.37
2023-02-08T16:37:08.153Z,62.26
2023-02-08T16:39:54.945Z,62.83
2023-02-08T16:42:22.727Z,62.98
2023-02-08T16:45:09.290Z,63.16
2023-02-08T16:47:38.948Z,64.72
2023-02-08T16:50:07.709Z,65.27
2023-02-08T16:52:35.770Z,64.67
2023-02-08T16:55:03.811Z,65.09
2023-02-08T16:57:41.117Z,65.00
2023-02-08T17:00:39.137Z,65.16
2023-02-08T17:03:07.139Z,66.53
2023-02-08T17:05:39.004Z,66.48
2023-02-08T17:08:11.204Z,67.51
2023-02-08T17:10:39.148Z,67.40
2023-02-08T17:13:19.954Z,67.82
2023-02-08T17:15:49.609Z,67.54
2023-02-08T17:18:17.671Z,67.70
2023-02-08T17:20:45.622Z,67.54
2023-02-08T17:23:13.807Z,68.35
2023-02-08T17:25:41.977Z,68.10
2023-02-08T17:28:15.764Z,68.02
2023-02-08T17:30:43.909Z,67.46
2023-02-08T17:33:18.986Z,68.28
2023-02-08T17:35:48.322Z,70.08
2023-02-08T17:38:16.766Z,69.12
2023-02-08T17:40:44.645Z,68.77
2023-02-08T17:43:12.937Z,69.65
2023-02-08T17:45:41.735Z,69.45
2023-02-08T17:48:09.933Z,70.22
2023-02-08T17:50:37.973Z,70.64
2023-02-08T17:53:06.007Z,70.69
2023-02-08T17:55:33.864Z,70.83
2023-02-08T17:58:01.752Z,71.21
2023-02-08T18:00:29.760Z,71.36
2023-02-08T18:03:00.531Z,71.08
2023-02-08T18:05:29.238Z,71.60
2023-02-08T18:07:57.817Z,71.16
2023-02-08T18:10:26.092Z,70.71
2023-02-08T18:12:53.863Z,70.68
2023-02-08T18:15:22.467Z,71.43
2023-02-08T18:17:51.571Z,71.72
2023-02-08T18:20:19.529Z,72.27
2023-02-08T18:22:47.494Z,72.64
2023-02-08T18:25:15.522Z,72.49
2023-02-08T18:27:43.514Z,72.35
2023-02-08T18:30:12.221Z,72.88
2023-02-08T18:32:40.824Z,73.46
2023-02-08T18:35:09.253Z,73.92
2023-02-08T18:37:37.624Z,73.89
2023-02-08T18:40:06.554Z,73.58
2023-02-08T18:42:36.083Z,73.55
2023-02-08T18:45:05.363Z,74.46
2023-02-08T18:47:33.753Z,74.82
2023-02-08T18:50:01.639Z,75.22
2023-02-08T18:52:31.455Z,74.70
2023-02-08T18:54:59.606Z,76.32
2023-02-08T18:57:27.508Z,74.62
2023-02-08T18:59:55.461Z,74.64
2023-02-08T19:02:23.889Z,73.99
2023-02-08T19:04:51.814Z,74.63
2023-02-08T19:07:19.732Z,75.02
2023-02-08T19:09:47.610Z,75.10
2023-02-08T19:12:16.596Z,73.04
2023-02-08T19:14:44.744Z,73.59
2023-02-08T19:17:14.810Z,73.52
2023-02-08T19:19:42.968Z,74.06
2023-02-08T19:22:10.994Z,73.27
2023-02-08T19:24:38.832Z,74.91
2023-02-08T19:27:06.788Z,73.87
2023-02-08T19:29:35.830Z,73.23
2023-02-08T19:32:03.838Z,73.05
2023-02-08T19:34:31.706Z,73.37
2023-02-08T19:36:59.528Z,73.09
2023-02-08T19:39:27.941Z,73.73
2023-02-08T19:41:56.186Z,73.64
2023-02-08T19:44:24.115Z,74.35
2023-02-08T19:46:54.185Z,73.35
2023-02-08T19:49:22.726Z,73.78
2023-02-08T19:51:50.675Z,73.87
2023-02-08T19:54:19.486Z,73.88
2023-02-08T19:56:47.483Z,74.22
2023-02-08T19:59:35.583Z,74.20
2023-02-08T20:02:03.507Z,75.18
2023-02-08T20:04:31.473Z,74.70
2023-02-08T20:06:59.574Z,75.37
2023-02-08T20:09:27.474Z,74.55
2023-02-08T20:11:57.746Z,74.96
2023-02-08T20:14:27.318Z,75.04
2023-02-08T20:16:55.445Z,74.98
2023-02-08T20:19:23.507Z,75.86
2023-02-08T20:21:51.675Z,75.45
2023-02-08T20:24:19.651Z,74.75
2023-02-08T20:26:48.032Z,74.98
2023-02-08T20:29:16.042Z,75.77
2023-02-08T20:31:46.212Z,75.73
2023-02-08T20:34:15.303Z,76.15
2023-02-08T20:36:57.537Z,75.74
2023-02-08T20:39:33.237Z,76.49
2023-02-08T20:42:01.267Z,75.38
2023-02-08T20:44:29.704Z,75.66
2023-02-08T20:46:57.604Z,75.62
2023-02-08T20:49:27.007Z,75.93
2023-02-08T20:51:55.278Z,75.58
2023-02-08T20:54:25.507Z,76.61
2023-02-08T20:56:53.771Z,76.37
2023-02-08T20:59:21.732Z,76.78
2023-02-08T21:01:49.913Z,76.99
2023-02-08T21:04:19.077Z,77.87
2023-02-08T21:06:47.576Z,78.89
2023-02-08T21:09:16.192Z,79.29
2023-02-08T21:11:46.478Z,78.83
2023-02-08T21:14:16.700Z,79.62
2023-02-08T21:16:44.573Z,79.87
2023-02-08T21:19:14.203Z,80.26
2023-02-08T21:21:42.870Z,81.33
2023-02-08T21:24:12.505Z,80.20
2023-02-08T21:26:40.335Z,80.75
2023-02-08T21:29:09.182Z,80.94
2023-02-08T21:31:39.813Z,81.29
2023-02-08T21:34:07.829Z,81.64
2023-02-08T21:36:35.702Z,81.49
2023-02-08T21:39:03.729Z,82.19
2023-02-08T21:41:33.551Z,82.35
2023-02-08T21:44:04.375Z,82.23
2023-02-08T21:46:35.264Z,82.14
2023-02-08T21:49:21.921Z,82.21
2023-02-08T21:52:08.246Z,81.90
2023-02-08T21:54:53.342Z,82.34
2023-02-08T21:57:28.984Z,82.21
2023-02-08T22:00:00.782Z,82.46
2023-02-08T22:02:29.928Z,82.58
2023-02-08T22:05:01.949Z,82.96
2023-02-08T22:07:29.983Z,83.58
2023-02-08T22:09:57.770Z,83.37
2023-02-08T22:12:25.725Z,83.61
2023-02-08T22:14:53.650Z,83.16
2023-02-08T22:17:21.569Z,83.56
2023-02-08T22:19:49.437Z,83.58
2023-02-08T22:22:17.374Z,83.52
2023-02-08T22:24:45.341Z,83.98
2023-02-08T22:27:13.105Z,84.46
2023-02-08T22:29:40.961Z,85.04
2023-02-08T22:32:10.928Z,84.43
2023-02-08T22:34:39.385Z,84.68
2023-02-08T22:37:07.250Z,84.85
2023-02-08T22:39:35.420Z,84.89
2023-02-08T22:42:09.269Z,84.19
2023-02-08T22:44:37.468Z,84.44
2023-02-08T22:47:06.153Z,84.98
2023-02-08T22:49:34.728Z,84.59
2023-02-08T22:52:02.679Z,85.00
2023-02-08T22:54:30.612Z,85.35
2023-02-08T22:56:58.478Z,85.57
2023-02-08T22:59:26.286Z,85.08
2023-02-08T23:01:56.460Z,85.55
2023-02-08T23:04:24.360Z,85.68
2023-02-08T23:06:52.332Z,85.24
2023-02-08T23:09:20.559Z,85.92
2023-02-08T23:11:48.425Z,85.42
2023-02-08T23:14:16.368Z,85.66
2023-02-08T23:16:44.305Z,85.62
2023-02-08T23:19:16.447Z,85.59
2023-02-08T23:21:44.874Z,85.85
2023-02-08T23:24:12.792Z,86.90
2023-02-08T23:26:41.417Z,85.94
2023-02-08T23:29:09.313Z,86.37
2023-02-08T23:31:37.337Z,86.85
2023-02-08T23:34:05.277Z,86.80
2023-02-08T23:36:33.073Z,87.14
2023-02-08T23:39:01.953Z,88.22
2023-02-08T23:41:30.546Z,87.60
2023-02-08T23:43:58.436Z,87.31
2023-02-08T23:46:28.075Z,87.55
2023-02-08T23:48:56.052Z,87.19
2023-02-08T23:51:26.372Z,87.88
2023-02-08T23:53:55.295Z,87.26
2023-02-08T23:56:23.024Z,87.35
2023-02-08T23:58:51.718Z,87.65
